sensor_id;sensor_type;location;lat;lon;timestamp;P1;durP1;ratioP1;P2;durP2;ratioP2
29568;SDS011;16501;51.462;14.346;2023-08-17T00:00:45;6.20;;;4.65;;
29568;SDS011;16501;51.462;14.346;2023-08-17T00:03:11;6.38;;;5.45;;
29568;SDS011;16501;51.462;14.346;2023-08-17T00:05:36;5.68;;;4.88;;
29568;SDS011;16501;51.462;14.346;2023-08-17T00:08:02;7.90;;;5.22;;
29568;SDS011;16501;51.462;14.346;2023-08-17T00:10:28;9.10;;;5.80;;
29568;SDS011;16501;51.462;14.346;2023-08-17T00:12:53;10.60;;;5.82;;
29568;SDS011;16501;51.462;14.346;2023-08-17T00:15:18;6.05;;;5.43;;
29568;SDS011;16501;51.462;14.346;2023-08-17T00:17:44;7.97;;;5.60;;
29568;SDS011;16501;51.462;14.346;2023-08-17T00:20:09;10.02;;;6.32;;
29568;SDS011;16501;51.462;14.346;2023-08-17T00:22:35;9.93;;;6.13;;
29568;SDS011;16501;51.462;14.346;2023-08-17T00:25:00;8.25;;;5.22;;
29568;SDS011;16501;51.462;14.346;2023-08-17T00:27:26;6.47;;;5.20;;
29568;SDS011;16501;51.462;14.346;2023-08-17T00:29:51;7.43;;;5.07;;
29568;SDS011;16501;51.462;14.346;2023-08-17T00:32:17;9.38;;;6.30;;
29568;SDS011;16501;51.462;14.346;2023-08-17T00:34:42;6.75;;;5.50;;
29568;SDS011;16501;51.462;14.346;2023-08-17T00:37:07;8.48;;;5.50;;
29568;SDS011;16501;51.462;14.346;2023-08-17T00:39:33;6.70;;;5.40;;
29568;SDS011;16501;51.462;14.346;2023-08-17T00:41:58;7.22;;;4.93;;
29568;SDS011;16501;51.462;14.346;2023-08-17T00:44:24;6.47;;;5.80;;
29568;SDS011;16501;51.462;14.346;2023-08-17T00:46:49;6.93;;;5.13;;
29568;SDS011;16501;51.462;14.346;2023-08-17T00:49:14;7.60;;;5.30;;
29568;SDS011;16501;51.462;14.346;2023-08-17T00:51:39;9.95;;;5.43;;
29568;SDS011;16501;51.462;14.346;2023-08-17T00:54:05;6.22;;;5.28;;
29568;SDS011;16501;51.462;14.346;2023-08-17T00:56:30;6.45;;;4.72;;
29568;SDS011;16501;51.462;14.346;2023-08-17T00:58:56;5.90;;;4.93;;
29568;SDS011;16501;51.462;14.346;2023-08-17T01:01:21;8.50;;;5.47;;
29568;SDS011;16501;51.462;14.346;2023-08-17T01:03:47;8.00;;;4.47;;
29568;SDS011;16501;51.462;14.346;2023-08-17T01:06:12;6.30;;;5.15;;
29568;SDS011;16501;51.462;14.346;2023-08-17T01:08:38;6.30;;;5.50;;
29568;SDS011;16501;51.462;14.346;2023-08-17T01:11:06;5.25;;;4.65;;
29568;SDS011;16501;51.462;14.346;2023-08-17T01:13:58;5.63;;;4.65;;
29568;SDS011;16501;51.462;14.346;2023-08-17T01:16:30;7.47;;;5.15;;
29568;SDS011;16501;51.462;14.346;2023-08-17T01:19:06;5.78;;;5.28;;
29568;SDS011;16501;51.462;14.346;2023-08-17T01:21:44;11.45;;;5.53;;
29568;SDS011;16501;51.462;14.346;2023-08-17T01:24:27;8.10;;;4.53;;
29568;SDS011;16501;51.462;14.346;2023-08-17T01:26:53;6.45;;;4.95;;
29568;SDS011;16501;51.462;14.346;2023-08-17T01:29:18;5.40;;;4.90;;
29568;SDS011;16501;51.462;14.346;2023-08-17T01:31:47;5.82;;;5.18;;
29568;SDS011;16501;51.462;14.346;2023-08-17T01:34:18;5.05;;;4.20;;
29568;SDS011;16501;51.462;14.346;2023-08-17T01:36:46;5.43;;;4.93;;
29568;SDS011;16501;51.462;14.346;2023-08-17T01:39:18;8.55;;;4.47;;
29568;SDS011;16501;51.462;14.346;2023-08-17T01:41:47;7.97;;;5.05;;
29568;SDS011;16501;51.462;14.346;2023-08-17T01:44:13;9.45;;;5.18;;
29568;SDS011;16501;51.462;14.346;2023-08-17T01:46:38;5.45;;;4.95;;
29568;SDS011;16501;51.462;14.346;2023-08-17T01:49:04;12.38;;;5.07;;
29568;SDS011;16501;51.462;14.346;2023-08-17T01:51:29;5.53;;;4.80;;
29568;SDS011;16501;51.462;14.346;2023-08-17T01:53:54;7.70;;;5.40;;
29568;SDS011;16501;51.462;14.346;2023-08-17T01:56:19;9.13;;;5.03;;
29568;SDS011;16501;51.462;14.346;2023-08-17T01:58:45;5.95;;;5.00;;
29568;SDS011;16501;51.462;14.346;2023-08-17T02:01:10;6.22;;;5.57;;
29568;SDS011;16501;51.462;14.346;2023-08-17T02:03:35;6.82;;;5.40;;
29568;SDS011;16501;51.462;14.346;2023-08-17T02:06:00;7.22;;;5.60;;
29568;SDS011;16501;51.462;14.346;2023-08-17T02:08:26;9.15;;;5.82;;
29568;SDS011;16501;51.462;14.346;2023-08-17T02:10:51;6.88;;;5.38;;
29568;SDS011;16501;51.462;14.346;2023-08-17T02:13:17;7.30;;;6.18;;
29568;SDS011;16501;51.462;14.346;2023-08-17T02:15:43;6.82;;;5.40;;
29568;SDS011;16501;51.462;14.346;2023-08-17T02:18:08;9.00;;;5.78;;
29568;SDS011;16501;51.462;14.346;2023-08-17T02:20:34;6.53;;;5.38;;
29568;SDS011;16501;51.462;14.346;2023-08-17T02:22:59;8.38;;;5.68;;
29568;SDS011;16501;51.462;14.346;2023-08-17T02:25:25;5.47;;;4.97;;
29568;SDS011;16501;51.462;14.346;2023-08-17T02:27:51;7.57;;;5.82;;
29568;SDS011;16501;51.462;14.346;2023-08-17T02:30:17;6.38;;;5.30;;
29568;SDS011;16501;51.462;14.346;2023-08-17T02:32:42;7.38;;;5.60;;
29568;SDS011;16501;51.462;14.346;2023-08-17T02:35:07;11.82;;;5.30;;
29568;SDS011;16501;51.462;14.346;2023-08-17T02:37:33;7.88;;;6.38;;
29568;SDS011;16501;51.462;14.346;2023-08-17T02:39:58;6.47;;;5.90;;
29568;SDS011;16501;51.462;14.346;2023-08-17T02:42:23;7.70;;;5.55;;
29568;SDS011;16501;51.462;14.346;2023-08-17T02:44:49;7.95;;;5.65;;
29568;SDS011;16501;51.462;14.346;2023-08-17T02:47:14;8.73;;;6.28;;
29568;SDS011;16501;51.462;14.346;2023-08-17T02:49:39;8.70;;;6.55;;
29568;SDS011;16501;51.462;14.346;2023-08-17T02:52:05;7.97;;;7.18;;
29568;SDS011;16501;51.462;14.346;2023-08-17T02:54:30;11.48;;;6.72;;
29568;SDS011;16501;51.462;14.346;2023-08-17T02:56:56;9.18;;;6.60;;
29568;SDS011;16501;51.462;14.346;2023-08-17T02:59:24;9.93;;;7.10;;
29568;SDS011;16501;51.462;14.346;2023-08-17T03:01:49;7.90;;;7.10;;
29568;SDS011;16501;51.462;14.346;2023-08-17T03:04:14;9.60;;;6.70;;
29568;SDS011;16501;51.462;14.346;2023-08-17T03:06:40;9.40;;;7.07;;
29568;SDS011;16501;51.462;14.346;2023-08-17T03:09:05;7.97;;;6.65;;
29568;SDS011;16501;51.462;14.346;2023-08-17T03:11:30;8.70;;;7.13;;
29568;SDS011;16501;51.462;14.346;2023-08-17T03:13:55;8.93;;;6.72;;
29568;SDS011;16501;51.462;14.346;2023-08-17T03:16:28;7.82;;;7.03;;
29568;SDS011;16501;51.462;14.346;2023-08-17T03:18:55;9.68;;;6.38;;
29568;SDS011;16501;51.462;14.346;2023-08-17T03:21:20;8.23;;;6.60;;
29568;SDS011;16501;51.462;14.346;2023-08-17T03:23:46;8.93;;;6.55;;
29568;SDS011;16501;51.462;14.346;2023-08-17T03:26:11;6.50;;;5.90;;
29568;SDS011;16501;51.462;14.346;2023-08-17T03:28:37;8.98;;;5.38;;
29568;SDS011;16501;51.462;14.346;2023-08-17T03:31:02;7.60;;;5.78;;
29568;SDS011;16501;51.462;14.346;2023-08-17T03:33:28;7.00;;;5.68;;
29568;SDS011;16501;51.462;14.346;2023-08-17T03:35:53;7.32;;;5.60;;
29568;SDS011;16501;51.462;14.346;2023-08-17T03:38:18;6.70;;;5.93;;
29568;SDS011;16501;51.462;14.346;2023-08-17T03:40:44;7.25;;;5.55;;
29568;SDS011;16501;51.462;14.346;2023-08-17T03:43:09;6.15;;;5.55;;
29568;SDS011;16501;51.462;14.346;2023-08-17T03:45:34;5.78;;;4.95;;
29568;SDS011;16501;51.462;14.346;2023-08-17T03:47:59;6.40;;;5.03;;
29568;SDS011;16501;51.462;14.346;2023-08-17T03:50:25;5.88;;;4.63;;
29568;SDS011;16501;51.462;14.346;2023-08-17T03:52:53;8.25;;;5.13;;
29568;SDS011;16501;51.462;14.346;2023-08-17T03:55:19;5.90;;;4.53;;
29568;SDS011;16501;51.462;14.346;2023-08-17T03:57:44;6.82;;;6.00;;
29568;SDS011;16501;51.462;14.346;2023-08-17T04:00:09;8.00;;;5.43;;
29568;SDS011;16501;51.462;14.346;2023-08-17T04:02:35;8.15;;;5.90;;
29568;SDS011;16501;51.462;14.346;2023-08-17T04:05:00;10.50;;;5.38;;
29568;SDS011;16501;51.462;14.346;2023-08-17T04:07:26;8.52;;;5.30;;
29568;SDS011;16501;51.462;14.346;2023-08-17T04:09:51;6.88;;;5.10;;
29568;SDS011;16501;51.462;14.346;2023-08-17T04:12:16;9.13;;;5.65;;
29568;SDS011;16501;51.462;14.346;2023-08-17T04:14:42;6.65;;;5.15;;
29568;SDS011;16501;51.462;14.346;2023-08-17T04:17:07;6.60;;;4.78;;
29568;SDS011;16501;51.462;14.346;2023-08-17T04:19:33;11.98;;;5.15;;
29568;SDS011;16501;51.462;14.346;2023-08-17T04:21:58;5.40;;;4.90;;
29568;SDS011;16501;51.462;14.346;2023-08-17T04:24:24;5.97;;;5.38;;
29568;SDS011;16501;51.462;14.346;2023-08-17T04:26:49;7.22;;;4.53;;
29568;SDS011;16501;51.462;14.346;2023-08-17T04:29:14;8.65;;;4.43;;
29568;SDS011;16501;51.462;14.346;2023-08-17T04:31:40;9.95;;;5.03;;
29568;SDS011;16501;51.462;14.346;2023-08-17T04:34:05;6.80;;;4.35;;
29568;SDS011;16501;51.462;14.346;2023-08-17T04:36:30;5.30;;;4.75;;
29568;SDS011;16501;51.462;14.346;2023-08-17T04:38:55;5.10;;;4.60;;
29568;SDS011;16501;51.462;14.346;2023-08-17T04:41:21;9.25;;;5.03;;
29568;SDS011;16501;51.462;14.346;2023-08-17T04:43:46;5.05;;;4.40;;
29568;SDS011;16501;51.462;14.346;2023-08-17T04:46:12;7.28;;;4.88;;
29568;SDS011;16501;51.462;14.346;2023-08-17T04:48:38;5.18;;;4.60;;
29568;SDS011;16501;51.462;14.346;2023-08-17T04:51:03;5.75;;;5.20;;
29568;SDS011;16501;51.462;14.346;2023-08-17T04:53:28;6.25;;;4.78;;
29568;SDS011;16501;51.462;14.346;2023-08-17T04:55:53;5.13;;;4.63;;
29568;SDS011;16501;51.462;14.346;2023-08-17T04:58:19;4.70;;;4.15;;
29568;SDS011;16501;51.462;14.346;2023-08-17T05:00:44;6.78;;;4.60;;
29568;SDS011;16501;51.462;14.346;2023-08-17T05:03:09;7.47;;;4.47;;
29568;SDS011;16501;51.462;14.346;2023-08-17T05:05:34;6.90;;;5.22;;
29568;SDS011;16501;51.462;14.346;2023-08-17T05:08:00;4.90;;;4.32;;
29568;SDS011;16501;51.462;14.346;2023-08-17T05:10:26;6.95;;;4.30;;
29568;SDS011;16501;51.462;14.346;2023-08-17T05:12:51;6.60;;;4.38;;
29568;SDS011;16501;51.462;14.346;2023-08-17T05:15:21;6.28;;;4.40;;
29568;SDS011;16501;51.462;14.346;2023-08-17T05:17:47;5.22;;;4.13;;
29568;SDS011;16501;51.462;14.346;2023-08-17T05:20:12;5.18;;;3.92;;
29568;SDS011;16501;51.462;14.346;2023-08-17T05:22:38;6.40;;;4.70;;
29568;SDS011;16501;51.462;14.346;2023-08-17T05:25:03;6.07;;;4.85;;
29568;SDS011;16501;51.462;14.346;2023-08-17T05:27:29;4.88;;;4.35;;
29568;SDS011;16501;51.462;14.346;2023-08-17T05:29:54;6.32;;;4.88;;
29568;SDS011;16501;51.462;14.346;2023-08-17T05:32:19;9.30;;;4.60;;
29568;SDS011;16501;51.462;14.346;2023-08-17T05:34:46;8.02;;;4.32;;
29568;SDS011;16501;51.462;14.346;2023-08-17T05:37:11;7.05;;;5.10;;
29568;SDS011;16501;51.462;14.346;2023-08-17T05:39:37;6.88;;;4.93;;
29568;SDS011;16501;51.462;14.346;2023-08-17T05:42:02;6.25;;;4.97;;
29568;SDS011;16501;51.462;14.346;2023-08-17T05:44:27;5.47;;;4.70;;
29568;SDS011;16501;51.462;14.346;2023-08-17T05:46:52;6.68;;;4.85;;
29568;SDS011;16501;51.462;14.346;2023-08-17T05:49:18;6.03;;;5.18;;
29568;SDS011;16501;51.462;14.346;2023-08-17T05:51:43;9.55;;;5.15;;
29568;SDS011;16501;51.462;14.346;2023-08-17T05:54:08;5.68;;;4.88;;
29568;SDS011;16501;51.462;14.346;2023-08-17T05:56:33;6.72;;;5.45;;
29568;SDS011;16501;51.462;14.346;2023-08-17T05:58:59;6.05;;;5.25;;
29568;SDS011;16501;51.462;14.346;2023-08-17T06:01:24;10.02;;;5.45;;
29568;SDS011;16501;51.462;14.346;2023-08-17T06:03:49;10.32;;;5.65;;
29568;SDS011;16501;51.462;14.346;2023-08-17T06:06:15;7.03;;;5.65;;
29568;SDS011;16501;51.462;14.346;2023-08-17T06:08:40;7.28;;;6.32;;
29568;SDS011;16501;51.462;14.346;2023-08-17T06:11:05;8.00;;;6.90;;
29568;SDS011;16501;51.462;14.346;2023-08-17T06:13:30;7.78;;;6.03;;
29568;SDS011;16501;51.462;14.346;2023-08-17T06:15:56;6.47;;;5.35;;
29568;SDS011;16501;51.462;14.346;2023-08-17T06:18:22;7.15;;;5.80;;
29568;SDS011;16501;51.462;14.346;2023-08-17T06:20:47;9.77;;;6.85;;
29568;SDS011;16501;51.462;14.346;2023-08-17T06:23:13;7.75;;;5.07;;
29568;SDS011;16501;51.462;14.346;2023-08-17T06:25:38;6.53;;;5.20;;
29568;SDS011;16501;51.462;14.346;2023-08-17T06:28:05;9.90;;;5.82;;
29568;SDS011;16501;51.462;14.346;2023-08-17T06:30:30;11.27;;;5.88;;
29568;SDS011;16501;51.462;14.346;2023-08-17T06:32:56;6.45;;;5.70;;
29568;SDS011;16501;51.462;14.346;2023-08-17T06:35:21;9.13;;;6.10;;
29568;SDS011;16501;51.462;14.346;2023-08-17T06:37:46;7.50;;;5.72;;
29568;SDS011;16501;51.462;14.346;2023-08-17T06:40:11;9.95;;;6.38;;
29568;SDS011;16501;51.462;14.346;2023-08-17T06:42:37;6.85;;;6.00;;
29568;SDS011;16501;51.462;14.346;2023-08-17T06:45:03;8.45;;;6.10;;
29568;SDS011;16501;51.462;14.346;2023-08-17T06:47:29;6.70;;;5.15;;
29568;SDS011;16501;51.462;14.346;2023-08-17T06:49:54;12.30;;;5.63;;
29568;SDS011;16501;51.462;14.346;2023-08-17T06:52:20;8.00;;;5.55;;
29568;SDS011;16501;51.462;14.346;2023-08-17T06:54:45;5.85;;;5.28;;
29568;SDS011;16501;51.462;14.346;2023-08-17T06:57:10;6.03;;;5.25;;
29568;SDS011;16501;51.462;14.346;2023-08-17T06:59:36;7.25;;;5.10;;
29568;SDS011;16501;51.462;14.346;2023-08-17T07:02:01;6.55;;;5.35;;
29568;SDS011;16501;51.462;14.346;2023-08-17T07:04:26;8.57;;;5.25;;
29568;SDS011;16501;51.462;14.346;2023-08-17T07:06:51;9.32;;;5.85;;
29568;SDS011;16501;51.462;14.346;2023-08-17T07:09:17;16.73;;;5.80;;
29568;SDS011;16501;51.462;14.346;2023-08-17T07:11:42;8.52;;;5.60;;
29568;SDS011;16501;51.462;14.346;2023-08-17T07:14:07;11.65;;;5.93;;
29568;SDS011;16501;51.462;14.346;2023-08-17T07:16:33;9.35;;;5.82;;
29568;SDS011;16501;51.462;14.346;2023-08-17T07:18:58;8.55;;;5.18;;
29568;SDS011;16501;51.462;14.346;2023-08-17T07:21:23;8.50;;;5.75;;
29568;SDS011;16501;51.462;14.346;2023-08-17T07:23:49;9.13;;;5.55;;
29568;SDS011;16501;51.462;14.346;2023-08-17T07:26:15;9.68;;;5.10;;
29568;SDS011;16501;51.462;14.346;2023-08-17T07:28:40;7.55;;;5.50;;
29568;SDS011;16501;51.462;14.346;2023-08-17T07:31:06;10.63;;;5.32;;
29568;SDS011;16501;51.462;14.346;2023-08-17T07:33:31;5.47;;;4.82;;
29568;SDS011;16501;51.462;14.346;2023-08-17T07:35:56;7.57;;;4.88;;
29568;SDS011;16501;51.462;14.346;2023-08-17T07:38:23;9.20;;;5.35;;
29568;SDS011;16501;51.462;14.346;2023-08-17T07:40:48;6.85;;;5.40;;
29568;SDS011;16501;51.462;14.346;2023-08-17T07:43:13;6.28;;;4.95;;
29568;SDS011;16501;51.462;14.346;2023-08-17T07:45:38;8.80;;;5.10;;
29568;SDS011;16501;51.462;14.346;2023-08-17T07:48:04;5.57;;;5.07;;
29568;SDS011;16501;51.462;14.346;2023-08-17T07:50:29;6.45;;;5.60;;
29568;SDS011;16501;51.462;14.346;2023-08-17T07:52:55;6.40;;;5.80;;
29568;SDS011;16501;51.462;14.346;2023-08-17T07:55:20;5.88;;;5.28;;
29568;SDS011;16501;51.462;14.346;2023-08-17T07:57:45;7.15;;;5.32;;
29568;SDS011;16501;51.462;14.346;2023-08-17T08:00:10;6.82;;;6.10;;
29568;SDS011;16501;51.462;14.346;2023-08-17T08:02:36;8.57;;;5.90;;
29568;SDS011;16501;51.462;14.346;2023-08-17T08:05:01;8.82;;;5.88;;
29568;SDS011;16501;51.462;14.346;2023-08-17T08:07:27;6.75;;;6.05;;
29568;SDS011;16501;51.462;14.346;2023-08-17T08:09:52;6.82;;;6.22;;
29568;SDS011;16501;51.462;14.346;2023-08-17T08:12:17;8.30;;;7.40;;
29568;SDS011;16501;51.462;14.346;2023-08-17T08:14:42;7.30;;;5.78;;
29568;SDS011;16501;51.462;14.346;2023-08-17T08:17:08;7.22;;;5.97;;
29568;SDS011;16501;51.462;14.346;2023-08-17T08:19:33;5.80;;;5.25;;
29568;SDS011;16501;51.462;14.346;2023-08-17T08:21:58;5.95;;;5.45;;
29568;SDS011;16501;51.462;14.346;2023-08-17T08:24:24;7.60;;;5.75;;
29568;SDS011;16501;51.462;14.346;2023-08-17T08:26:49;8.25;;;5.63;;
29568;SDS011;16501;51.462;14.346;2023-08-17T08:29:15;6.60;;;6.00;;
29568;SDS011;16501;51.462;14.346;2023-08-17T08:31:41;5.88;;;5.28;;
29568;SDS011;16501;51.462;14.346;2023-08-17T08:34:06;5.95;;;5.30;;
29568;SDS011;16501;51.462;14.346;2023-08-17T08:36:31;8.38;;;6.05;;
29568;SDS011;16501;51.462;14.346;2023-08-17T08:38:56;7.15;;;5.10;;
29568;SDS011;16501;51.462;14.346;2023-08-17T08:41:22;13.60;;;6.30;;
29568;SDS011;16501;51.462;14.346;2023-08-17T08:43:51;5.35;;;4.85;;
29568;SDS011;16501;51.462;14.346;2023-08-17T08:46:16;8.48;;;6.10;;
29568;SDS011;16501;51.462;14.346;2023-08-17T08:48:43;6.50;;;5.80;;
29568;SDS011;16501;51.462;14.346;2023-08-17T08:51:10;7.15;;;6.47;;
29568;SDS011;16501;51.462;14.346;2023-08-17T08:53:43;6.50;;;5.55;;
29568;SDS011;16501;51.462;14.346;2023-08-17T08:56:13;7.05;;;6.35;;
29568;SDS011;16501;51.462;14.346;2023-08-17T08:58:41;7.20;;;6.22;;
29568;SDS011;16501;51.462;14.346;2023-08-17T09:01:07;9.93;;;5.55;;
29568;SDS011;16501;51.462;14.346;2023-08-17T09:03:35;7.53;;;5.97;;
29568;SDS011;16501;51.462;14.346;2023-08-17T09:06:01;7.28;;;5.57;;
29568;SDS011;16501;51.462;14.346;2023-08-17T09:08:29;7.72;;;5.97;;
29568;SDS011;16501;51.462;14.346;2023-08-17T09:10:55;7.75;;;5.43;;
29568;SDS011;16501;51.462;14.346;2023-08-17T09:13:20;9.77;;;6.07;;
29568;SDS011;16501;51.462;14.346;2023-08-17T09:15:46;15.38;;;7.05;;
29568;SDS011;16501;51.462;14.346;2023-08-17T09:18:11;7.03;;;5.65;;
29568;SDS011;16501;51.462;14.346;2023-08-17T09:20:43;6.60;;;5.20;;
29568;SDS011;16501;51.462;14.346;2023-08-17T09:23:13;6.30;;;5.70;;
29568;SDS011;16501;51.462;14.346;2023-08-17T09:25:41;6.30;;;5.22;;
29568;SDS011;16501;51.462;14.346;2023-08-17T09:28:08;9.75;;;5.72;;
29568;SDS011;16501;51.462;14.346;2023-08-17T09:33:19;7.70;;;5.38;;
29568;SDS011;16501;51.462;14.346;2023-08-17T09:35:52;7.57;;;5.85;;
29568;SDS011;16501;51.462;14.346;2023-08-17T09:38:19;8.20;;;5.70;;
29568;SDS011;16501;51.462;14.346;2023-08-17T09:40:45;5.97;;;5.22;;
29568;SDS011;16501;51.462;14.346;2023-08-17T09:43:11;5.85;;;5.30;;
29568;SDS011;16501;51.462;14.346;2023-08-17T09:45:39;7.28;;;5.40;;
29568;SDS011;16501;51.462;14.346;2023-08-17T09:48:07;6.88;;;5.05;;
29568;SDS011;16501;51.462;14.346;2023-08-17T09:50:33;6.05;;;4.90;;
29568;SDS011;16501;51.462;14.346;2023-08-17T09:52:58;5.82;;;4.85;;
29568;SDS011;16501;51.462;14.346;2023-08-17T09:55:23;6.28;;;4.90;;
29568;SDS011;16501;51.462;14.346;2023-08-17T09:57:50;5.35;;;4.80;;
29568;SDS011;16501;51.462;14.346;2023-08-17T10:00:16;5.88;;;4.93;;
29568;SDS011;16501;51.462;14.346;2023-08-17T10:02:43;5.90;;;5.30;;
29568;SDS011;16501;51.462;14.346;2023-08-17T10:05:11;5.65;;;5.00;;
29568;SDS011;16501;51.462;14.346;2023-08-17T10:07:37;6.05;;;5.45;;
29568;SDS011;16501;51.462;14.346;2023-08-17T10:10:06;6.32;;;4.72;;
29568;SDS011;16501;51.462;14.346;2023-08-17T10:12:33;5.60;;;5.03;;
29568;SDS011;16501;51.462;14.346;2023-08-17T10:15:02;6.22;;;5.22;;
29568;SDS011;16501;51.462;14.346;2023-08-17T10:17:49;5.68;;;5.13;;
29568;SDS011;16501;51.462;14.346;2023-08-17T10:20:20;6.07;;;5.45;;
29568;SDS011;16501;51.462;14.346;2023-08-17T10:22:51;6.63;;;5.50;;
29568;SDS011;16501;51.462;14.346;2023-08-17T10:25:25;6.78;;;5.75;;
29568;SDS011;16501;51.462;14.346;2023-08-17T10:27:52;6.03;;;5.43;;
29568;SDS011;16501;51.462;14.346;2023-08-17T10:30:19;6.28;;;5.43;;
29568;SDS011;16501;51.462;14.346;2023-08-17T10:32:44;7.38;;;6.05;;
29568;SDS011;16501;51.462;14.346;2023-08-17T10:35:11;7.55;;;5.63;;
29568;SDS011;16501;51.462;14.346;2023-08-17T10:37:38;5.90;;;5.40;;
29568;SDS011;16501;51.462;14.346;2023-08-17T10:40:04;6.97;;;5.90;;
29568;SDS011;16501;51.462;14.346;2023-08-17T10:42:30;12.10;;;5.97;;
29568;SDS011;16501;51.462;14.346;2023-08-17T10:45:00;8.02;;;6.10;;
29568;SDS011;16501;51.462;14.346;2023-08-17T10:47:31;8.48;;;6.05;;
29568;SDS011;16501;51.462;14.346;2023-08-17T10:50:20;9.55;;;5.65;;
29568;SDS011;16501;51.462;14.346;2023-08-17T10:55:15;7.97;;;6.00;;
29568;SDS011;16501;51.462;14.346;2023-08-17T10:57:41;8.07;;;6.35;;
29568;SDS011;16501;51.462;14.346;2023-08-17T11:00:23;6.13;;;5.28;;
29568;SDS011;16501;51.462;14.346;2023-08-17T11:02:58;6.22;;;5.40;;
29568;SDS011;16501;51.462;14.346;2023-08-17T11:05:34;16.23;;;6.55;;
29568;SDS011;16501;51.462;14.346;2023-08-17T11:08:28;8.80;;;5.68;;
29568;SDS011;16501;51.462;14.346;2023-08-17T11:10:58;9.55;;;5.75;;
29568;SDS011;16501;51.462;14.346;2023-08-17T11:13:39;8.30;;;5.80;;
29568;SDS011;16501;51.462;14.346;2023-08-17T11:16:06;6.55;;;5.65;;
29568;SDS011;16501;51.462;14.346;2023-08-17T11:18:35;10.68;;;5.80;;
29568;SDS011;16501;51.462;14.346;2023-08-17T11:21:04;6.32;;;5.72;;
29568;SDS011;16501;51.462;14.346;2023-08-17T11:23:31;8.20;;;6.55;;
29568;SDS011;16501;51.462;14.346;2023-08-17T11:25:57;7.05;;;5.47;;
29568;SDS011;16501;51.462;14.346;2023-08-17T11:28:23;8.32;;;5.68;;
29568;SDS011;16501;51.462;14.346;2023-08-17T11:31:02;6.80;;;6.10;;
29568;SDS011;16501;51.462;14.346;2023-08-17T11:33:29;9.18;;;5.78;;
29568;SDS011;16501;51.462;14.346;2023-08-17T11:35:59;6.55;;;5.57;;
29568;SDS011;16501;51.462;14.346;2023-08-17T11:38:27;10.38;;;6.32;;
29568;SDS011;16501;51.462;14.346;2023-08-17T11:40:55;6.47;;;5.88;;
29568;SDS011;16501;51.462;14.346;2023-08-17T11:43:25;6.85;;;5.60;;
29568;SDS011;16501;51.462;14.346;2023-08-17T11:45:51;6.82;;;6.13;;
29568;SDS011;16501;51.462;14.346;2023-08-17T11:48:20;7.43;;;6.55;;
29568;SDS011;16501;51.462;14.346;2023-08-17T11:50:45;6.35;;;5.80;;
29568;SDS011;16501;51.462;14.346;2023-08-17T11:53:10;9.97;;;7.03;;
29568;SDS011;16501;51.462;14.346;2023-08-17T11:55:36;9.38;;;6.60;;
29568;SDS011;16501;51.462;14.346;2023-08-17T11:58:02;7.70;;;6.38;;
29568;SDS011;16501;51.462;14.346;2023-08-17T12:00:27;7.55;;;6.22;;
29568;SDS011;16501;51.462;14.346;2023-08-17T12:03:00;6.72;;;6.10;;
29568;SDS011;16501;51.462;14.346;2023-08-17T12:05:25;10.40;;;6.37;;
29568;SDS011;16501;51.462;14.346;2023-08-17T12:07:52;7.57;;;6.10;;
29568;SDS011;16501;51.462;14.346;2023-08-17T12:10:18;11.80;;;6.47;;
29568;SDS011;16501;51.462;14.346;2023-08-17T12:12:50;10.80;;;6.50;;
29568;SDS011;16501;51.462;14.346;2023-08-17T12:15:17;7.00;;;6.38;;
29568;SDS011;16501;51.462;14.346;2023-08-17T12:17:47;8.80;;;6.78;;
29568;SDS011;16501;51.462;14.346;2023-08-17T12:20:20;7.72;;;6.82;;
29568;SDS011;16501;51.462;14.346;2023-08-17T12:22:46;12.20;;;7.15;;
29568;SDS011;16501;51.462;14.346;2023-08-17T12:25:12;7.47;;;6.78;;
29568;SDS011;16501;51.462;14.346;2023-08-17T12:27:38;7.70;;;7.00;;
29568;SDS011;16501;51.462;14.346;2023-08-17T12:30:04;7.97;;;7.07;;
29568;SDS011;16501;51.462;14.346;2023-08-17T12:32:31;13.63;;;7.05;;
29568;SDS011;16501;51.462;14.346;2023-08-17T12:34:56;8.10;;;6.57;;
29568;SDS011;16501;51.462;14.346;2023-08-17T12:37:21;10.17;;;6.93;;
29568;SDS011;16501;51.462;14.346;2023-08-17T12:39:47;7.63;;;6.90;;
29568;SDS011;16501;51.462;14.346;2023-08-17T12:42:13;8.63;;;7.03;;
29568;SDS011;16501;51.462;14.346;2023-08-17T12:44:39;11.00;;;7.50;;
29568;SDS011;16501;51.462;14.346;2023-08-17T12:47:05;9.55;;;7.05;;
29568;SDS011;16501;51.462;14.346;2023-08-17T12:49:30;8.20;;;6.50;;
29568;SDS011;16501;51.462;14.346;2023-08-17T12:51:55;9.13;;;6.93;;
29568;SDS011;16501;51.462;14.346;2023-08-17T12:54:23;7.97;;;7.18;;
29568;SDS011;16501;51.462;14.346;2023-08-17T12:56:48;7.93;;;7.10;;
29568;SDS011;16501;51.462;14.346;2023-08-17T12:59:13;10.10;;;7.57;;
29568;SDS011;16501;51.462;14.346;2023-08-17T13:01:39;8.88;;;7.40;;
29568;SDS011;16501;51.462;14.346;2023-08-17T13:04:04;8.52;;;7.28;;
29568;SDS011;16501;51.462;14.346;2023-08-17T13:06:30;8.65;;;7.63;;
29568;SDS011;16501;51.462;14.346;2023-08-17T13:08:55;9.52;;;7.65;;
29568;SDS011;16501;51.462;14.346;2023-08-17T13:11:20;8.03;;;7.10;;
29568;SDS011;16501;51.462;14.346;2023-08-17T13:13:45;10.60;;;7.35;;
29568;SDS011;16501;51.462;14.346;2023-08-17T13:16:11;9.75;;;7.32;;
29568;SDS011;16501;51.462;14.346;2023-08-17T13:18:36;8.15;;;7.30;;
29568;SDS011;16501;51.462;14.346;2023-08-17T13:21:02;8.43;;;7.53;;
29568;SDS011;16501;51.462;14.346;2023-08-17T13:23:27;11.80;;;7.00;;
29568;SDS011;16501;51.462;14.346;2023-08-17T13:25:53;8.52;;;7.30;;
29568;SDS011;16501;51.462;14.346;2023-08-17T13:28:18;10.50;;;6.90;;
29568;SDS011;16501;51.462;14.346;2023-08-17T13:30:43;7.72;;;6.93;;
29568;SDS011;16501;51.462;14.346;2023-08-17T13:33:08;8.37;;;6.67;;
29568;SDS011;16501;51.462;14.346;2023-08-17T13:35:34;12.88;;;6.65;;
29568;SDS011;16501;51.462;14.346;2023-08-17T13:37:59;8.25;;;7.40;;
29568;SDS011;16501;51.462;14.346;2023-08-17T13:40:25;8.13;;;7.13;;
29568;SDS011;16501;51.462;14.346;2023-08-17T13:42:50;7.45;;;6.63;;
29568;SDS011;16501;51.462;14.346;2023-08-17T13:45:15;7.43;;;6.72;;
29568;SDS011;16501;51.462;14.346;2023-08-17T13:47:41;6.90;;;6.28;;
29568;SDS011;16501;51.462;14.346;2023-08-17T13:50:06;9.60;;;7.15;;
29568;SDS011;16501;51.462;14.346;2023-08-17T13:52:32;8.13;;;6.45;;
29568;SDS011;16501;51.462;14.346;2023-08-17T13:54:58;11.15;;;6.75;;
29568;SDS011;16501;51.462;14.346;2023-08-17T13:57:23;8.47;;;7.40;;
29568;SDS011;16501;51.462;14.346;2023-08-17T13:59:48;7.72;;;7.03;;
29568;SDS011;16501;51.462;14.346;2023-08-17T14:02:13;9.95;;;6.82;;
29568;SDS011;16501;51.462;14.346;2023-08-17T14:04:39;9.20;;;6.93;;
29568;SDS011;16501;51.462;14.346;2023-08-17T14:07:04;7.75;;;7.05;;
29568;SDS011;16501;51.462;14.346;2023-08-17T14:09:29;10.05;;;6.70;;
29568;SDS011;16501;51.462;14.346;2023-08-17T14:11:55;9.18;;;6.65;;
29568;SDS011;16501;51.462;14.346;2023-08-17T14:14:20;7.80;;;7.05;;
29568;SDS011;16501;51.462;14.346;2023-08-17T14:16:46;7.20;;;6.53;;
29568;SDS011;16501;51.462;14.346;2023-08-17T14:19:11;7.65;;;6.95;;
29568;SDS011;16501;51.462;14.346;2023-08-17T14:21:36;7.80;;;6.72;;
29568;SDS011;16501;51.462;14.346;2023-08-17T14:24:01;7.95;;;6.90;;
29568;SDS011;16501;51.462;14.346;2023-08-17T14:26:27;7.55;;;6.88;;
29568;SDS011;16501;51.462;14.346;2023-08-17T14:28:52;8.30;;;7.50;;
29568;SDS011;16501;51.462;14.346;2023-08-17T14:31:17;9.87;;;7.50;;
29568;SDS011;16501;51.462;14.346;2023-08-17T14:33:44;11.50;;;7.00;;